sensor_id;sensor_type;location;lat;lon;timestamp;pressure;altitude;pressure_sealevel;temperature;humidity
69570;BME280;56781;42.292;23.146;2023-03-31T00:00:27;95656.69;;;3.81;99.22
69570;BME280;56781;42.292;23.146;2023-03-31T00:02:55;95683.72;;;3.24;100.00
69570;BME280;56781;42.292;23.146;2023-03-31T00:05:24;95681.41;;;3.05;100.00
69570;BME280;56781;42.292;23.146;2023-03-31T00:07:53;95652.75;;;2.97;100.00
69570;BME280;56781;42.292;23.146;2023-03-31T00:10:21;95667.56;;;3.25;100.00
69570;BME280;56781;42.292;23.146;2023-03-31T00:12:48;95638.97;;;3.22;100.00
69570;BME280;56781;42.292;23.146;2023-03-31T00:15:15;95641.50;;;3.39;100.00
69570;BME280;56781;42.292;23.146;2023-03-31T00:17:42;95664.31;;;3.72;100.00
69570;BME280;56781;42.292;23.146;2023-03-31T00:20:09;95650.81;;;3.74;100.00
69570;BME280;56781;42.292;23.146;2023-03-31T00:22:38;95653.66;;;3.99;100.00
69570;BME280;56781;42.292;23.146;2023-03-31T00:25:08;95652.63;;;4.06;99.21
69570;BME280;56781;42.292;23.146;2023-03-31T00:27:36;95671.81;;;4.23;98.71
69570;BME280;56781;42.292;23.146;2023-03-31T00:30:04;95659.00;;;4.10;99.14
69570;BME280;56781;42.292;23.146;2023-03-31T00:32:31;95639.06;;;3.97;99.98
69570;BME280;56781;42.292;23.146;2023-03-31T00:34:59;95641.81;;;4.12;100.00
69570;BME280;56781;42.292;23.146;2023-03-31T00:37:28;95637.34;;;4.23;100.00
69570;BME280;56781;42.292;23.146;2023-03-31T00:39:56;95631.19;;;4.12;100.00
69570;BME280;56781;42.292;23.146;2023-03-31T00:42:23;95638.91;;;4.14;100.00
69570;BME280;56781;42.292;23.146;2023-03-31T00:47:54;95640.44;;;4.05;100.00
69570;BME280;56781;42.292;23.146;2023-03-31T00:50:27;95626.00;;;3.85;100.00
69570;BME280;56781;42.292;23.146;2023-03-31T00:53:07;95638.41;;;3.80;100.00
69570;BME280;56781;42.292;23.146;2023-03-31T00:55:43;95618.78;;;4.13;100.00
69570;BME280;56781;42.292;23.146;2023-03-31T00:58:12;95630.53;;;4.32;100.00
69570;BME280;56781;42.292;23.146;2023-03-31T01:00:41;95612.84;;;4.43;100.00
69570;BME280;56781;42.292;23.146;2023-03-31T01:03:09;95615.25;;;4.50;100.00
69570;BME280;56781;42.292;23.146;2023-03-31T01:05:49;95610.78;;;4.60;100.00
69570;BME280;56781;42.292;23.146;2023-03-31T01:08:19;95590.88;;;4.58;100.00
69570;BME280;56781;42.292;23.146;2023-03-31T01:10:53;95602.34;;;4.74;100.00
69570;BME280;56781;42.292;23.146;2023-03-31T01:13:21;95606.34;;;4.81;100.00
69570;BME280;56781;42.292;23.146;2023-03-31T01:15:49;95610.59;;;4.87;100.00
69570;BME280;56781;42.292;23.146;2023-03-31T01:18:17;95614.34;;;4.92;100.00
69570;BME280;56781;42.292;23.146;2023-03-31T01:27:24;95617.59;;;5.45;100.00
69570;BME280;56781;42.292;23.146;2023-03-31T01:33:08;95621.28;;;5.08;100.00
69570;BME280;56781;42.292;23.146;2023-03-31T01:41:32;95611.75;;;5.22;100.00
69570;BME280;56781;42.292;23.146;2023-03-31T01:44:19;95622.88;;;5.34;100.00
69570;BME280;56781;42.292;23.146;2023-03-31T01:47:01;95649.72;;;5.53;100.00
69570;BME280;56781;42.292;23.146;2023-03-31T01:49:51;95634.84;;;5.47;100.00
69570;BME280;56781;42.292;23.146;2023-03-31T01:54:58;95638.59;;;6.08;91.81
69570;BME280;56781;42.292;23.146;2023-03-31T01:57:34;95637.00;;;6.27;89.06
69570;BME280;56781;42.292;23.146;2023-03-31T02:00:10;95619.66;;;6.35;87.26
69570;BME280;56781;42.292;23.146;2023-03-31T02:02:48;95634.25;;;6.48;88.25
69570;BME280;56781;42.292;23.146;2023-03-31T02:05:23;95650.72;;;6.60;87.98
69570;BME280;56781;42.292;23.146;2023-03-31T02:07:58;95647.00;;;6.61;89.06
69570;BME280;56781;42.292;23.146;2023-03-31T02:10:29;95643.00;;;6.63;86.36
69570;BME280;56781;42.292;23.146;2023-03-31T02:12:59;95644.31;;;6.71;87.75
69570;BME280;56781;42.292;23.146;2023-03-31T02:15:30;95646.44;;;6.64;87.84
69570;BME280;56781;42.292;23.146;2023-03-31T02:18:02;95667.44;;;6.71;87.04
69570;BME280;56781;42.292;23.146;2023-03-31T02:20:32;95687.13;;;6.64;89.76
69570;BME280;56781;42.292;23.146;2023-03-31T02:22:59;95690.09;;;6.48;90.91
69570;BME280;56781;42.292;23.146;2023-03-31T02:25:35;95689.56;;;6.46;89.63
69570;BME280;56781;42.292;23.146;2023-03-31T02:28:10;95695.19;;;6.39;88.51
69570;BME280;56781;42.292;23.146;2023-03-31T02:30:47;95705.75;;;6.59;87.63
69570;BME280;56781;42.292;23.146;2023-03-31T02:33:17;95681.25;;;6.73;85.61
69570;BME280;56781;42.292;23.146;2023-03-31T02:35:44;95669.50;;;6.89;86.40
69570;BME280;56781;42.292;23.146;2023-03-31T02:38:11;95692.94;;;6.87;87.36
69570;BME280;56781;42.292;23.146;2023-03-31T02:40:38;95700.38;;;6.90;83.96
69570;BME280;56781;42.292;23.146;2023-03-31T02:43:06;95692.19;;;6.76;88.23
69570;BME280;56781;42.292;23.146;2023-03-31T02:45:44;95682.84;;;6.79;87.18
69570;BME280;56781;42.292;23.146;2023-03-31T02:48:21;95700.94;;;6.82;89.88
69570;BME280;56781;42.292;23.146;2023-03-31T02:53:45;95695.16;;;6.49;94.76
69570;BME280;56781;42.292;23.146;2023-03-31T02:59:29;95681.41;;;6.11;99.55
69570;BME280;56781;42.292;23.146;2023-03-31T03:02:07;95658.28;;;6.07;100.00
69570;BME280;56781;42.292;23.146;2023-03-31T03:10:59;95621.06;;;6.07;100.00
69570;BME280;56781;42.292;23.146;2023-03-31T03:19:23;95611.47;;;5.29;100.00
69570;BME280;56781;42.292;23.146;2023-03-31T03:21:50;95607.50;;;5.37;100.00
69570;BME280;56781;42.292;23.146;2023-03-31T03:24:18;95596.88;;;5.37;100.00
69570;BME280;56781;42.292;23.146;2023-03-31T03:26:45;95625.03;;;5.48;100.00
69570;BME280;56781;42.292;23.146;2023-03-31T03:29:12;95589.44;;;5.28;100.00
69570;BME280;56781;42.292;23.146;2023-03-31T03:31:43;95589.47;;;5.33;100.00
69570;BME280;56781;42.292;23.146;2023-03-31T03:34:10;95593.69;;;5.34;100.00
69570;BME280;56781;42.292;23.146;2023-03-31T03:36:38;95603.25;;;5.51;100.00
69570;BME280;56781;42.292;23.146;2023-03-31T03:39:06;95591.06;;;5.50;100.00
69570;BME280;56781;42.292;23.146;2023-03-31T03:41:34;95617.63;;;5.55;100.00
69570;BME280;56781;42.292;23.146;2023-03-31T03:44:02;95618.16;;;5.57;100.00
69570;BME280;56781;42.292;23.146;2023-03-31T03:46:29;95620.53;;;5.59;100.00
69570;BME280;56781;42.292;23.146;2023-03-31T03:48:56;95643.38;;;5.75;100.00
69570;BME280;56781;42.292;23.146;2023-03-31T03:51:23;95631.41;;;5.72;100.00
69570;BME280;56781;42.292;23.146;2023-03-31T03:53:51;95608.59;;;5.76;100.00
69570;BME280;56781;42.292;23.146;2023-03-31T03:56:18;95624.00;;;5.95;100.00
69570;BME280;56781;42.292;23.146;2023-03-31T03:58:45;95607.75;;;5.91;100.00
69570;BME280;56781;42.292;23.146;2023-03-31T04:01:12;95594.75;;;5.80;100.00
69570;BME280;56781;42.292;23.146;2023-03-31T04:03:40;95611.25;;;5.87;100.00
69570;BME280;56781;42.292;23.146;2023-03-31T04:06:07;95600.88;;;5.80;100.00
69570;BME280;56781;42.292;23.146;2023-03-31T04:08:34;95604.84;;;5.77;100.00
69570;BME280;56781;42.292;23.146;2023-03-31T04:11:03;95645.78;;;5.92;100.00
69570;BME280;56781;42.292;23.146;2023-03-31T04:13:35;95605.38;;;5.74;100.00
69570;BME280;56781;42.292;23.146;2023-03-31T04:16:02;95610.16;;;5.83;100.00
69570;BME280;56781;42.292;23.146;2023-03-31T04:18:30;95599.28;;;5.79;100.00
69570;BME280;56781;42.292;23.146;2023-03-31T04:20:57;95618.66;;;5.90;100.00
69570;BME280;56781;42.292;23.146;2023-03-31T04:23:35;95609.13;;;5.78;100.00
69570;BME280;56781;42.292;23.146;2023-03-31T04:26:17;95614.69;;;5.51;100.00
69570;BME280;56781;42.292;23.146;2023-03-31T04:28:45;95616.03;;;5.49;100.00
69570;BME280;56781;42.292;23.146;2023-03-31T04:31:16;95610.97;;;5.63;100.00
69570;BME280;56781;42.292;23.146;2023-03-31T04:33:52;95598.75;;;5.62;100.00
69570;BME280;56781;42.292;23.146;2023-03-31T04:36:20;95600.91;;;5.65;100.00
69570;BME280;56781;42.292;23.146;2023-03-31T04:38:49;95606.47;;;5.63;100.00
69570;BME280;56781;42.292;23.146;2023-03-31T04:41:22;95628.25;;;5.70;100.00
69570;BME280;56781;42.292;23.146;2023-03-31T04:43:50;95636.50;;;5.94;100.00
69570;BME280;56781;42.292;23.146;2023-03-31T04:46:17;95621.31;;;5.74;100.00
69570;BME280;56781;42.292;23.146;2023-03-31T04:48:44;95618.66;;;5.69;100.00
69570;BME280;56781;42.292;23.146;2023-03-31T04:51:11;95607.00;;;5.70;100.00
69570;BME280;56781;42.292;23.146;2023-03-31T04:53:41;95633.03;;;5.94;100.00
69570;BME280;56781;42.292;23.146;2023-03-31T04:56:08;95637.00;;;6.07;97.73
69570;BME280;56781;42.292;23.146;2023-03-31T04:58:35;95633.03;;;6.09;100.00
69570;BME280;56781;42.292;23.146;2023-03-31T05:01:03;95634.59;;;6.15;100.00
69570;BME280;56781;42.292;23.146;2023-03-31T05:03:32;95634.34;;;6.12;100.00
69570;BME280;56781;42.292;23.146;2023-03-31T05:06:00;95634.88;;;6.14;100.00
69570;BME280;56781;42.292;23.146;2023-03-31T05:08:27;95671.78;;;6.36;100.00
69570;BME280;56781;42.292;23.146;2023-03-31T05:10:55;95642.84;;;6.14;100.00
69570;BME280;56781;42.292;23.146;2023-03-31T05:13:22;95628.97;;;6.32;100.00
69570;BME280;56781;42.292;23.146;2023-03-31T05:15:49;95634.88;;;6.19;100.00
69570;BME280;56781;42.292;23.146;2023-03-31T05:18:17;95660.84;;;6.53;100.00
69570;BME280;56781;42.292;23.146;2023-03-31T05:20:44;95624.19;;;6.39;100.00
69570;BME280;56781;42.292;23.146;2023-03-31T05:23:12;95631.56;;;6.58;100.00
69570;BME280;56781;42.292;23.146;2023-03-31T05:25:39;95609.75;;;6.61;100.00
69570;BME280;56781;42.292;23.146;2023-03-31T05:28:08;95600.97;;;6.60;100.00
69570;BME280;56781;42.292;23.146;2023-03-31T05:30:38;95594.34;;;6.53;100.00
69570;BME280;56781;42.292;23.146;2023-03-31T05:33:05;95596.44;;;7.16;100.00
69570;BME280;56781;42.292;23.146;2023-03-31T05:35:32;95578.88;;;9.22;91.58
69570;BME280;56781;42.292;23.146;2023-03-31T05:37:59;95612.81;;;11.44;80.00
69570;BME280;56781;42.292;23.146;2023-03-31T05:40:27;95577.13;;;12.65;73.75
69570;BME280;56781;42.292;23.146;2023-03-31T05:42:54;95545.78;;;13.26;68.65
69570;BME280;56781;42.292;23.146;2023-03-31T05:45:21;95557.00;;;12.14;72.95
69570;BME280;56781;42.292;23.146;2023-03-31T05:47:48;95542.88;;;12.88;69.61
69570;BME280;56781;42.292;23.146;2023-03-31T05:50:15;95547.97;;;13.77;66.54
69570;BME280;56781;42.292;23.146;2023-03-31T05:52:42;95554.00;;;15.69;60.04
69570;BME280;56781;42.292;23.146;2023-03-31T05:55:09;95569.13;;;16.28;54.22
69570;BME280;56781;42.292;23.146;2023-03-31T05:57:37;95580.84;;;14.94;55.47
69570;BME280;56781;42.292;23.146;2023-03-31T06:00:04;95591.56;;;15.02;57.44
69570;BME280;56781;42.292;23.146;2023-03-31T06:02:32;95592.22;;;14.05;60.05
69570;BME280;56781;42.292;23.146;2023-03-31T06:04:59;95580.34;;;13.02;60.86
69570;BME280;56781;42.292;23.146;2023-03-31T06:07:27;95565.38;;;14.35;58.80
69570;BME280;56781;42.292;23.146;2023-03-31T06:09:54;95588.06;;;15.52;55.16
69570;BME280;56781;42.292;23.146;2023-03-31T06:12:21;95593.72;;;16.02;53.70
69570;BME280;56781;42.292;23.146;2023-03-31T06:14:48;95593.34;;;15.91;52.60
69570;BME280;56781;42.292;23.146;2023-03-31T06:17:15;95584.16;;;15.62;54.06
69570;BME280;56781;42.292;23.146;2023-03-31T06:19:42;95585.97;;;15.37;55.80
69570;BME280;56781;42.292;23.146;2023-03-31T06:22:09;95599.59;;;15.11;55.44
69570;BME280;56781;42.292;23.146;2023-03-31T06:24:36;95590.81;;;15.23;55.98
69570;BME280;56781;42.292;23.146;2023-03-31T06:27:05;95621.34;;;14.76;56.61
69570;BME280;56781;42.292;23.146;2023-03-31T06:29:32;95589.19;;;15.72;54.50
69570;BME280;56781;42.292;23.146;2023-03-31T06:32:00;95578.56;;;15.46;53.77
69570;BME280;56781;42.292;23.146;2023-03-31T06:34:28;95589.63;;;16.29;53.16
69570;BME280;56781;42.292;23.146;2023-03-31T06:36:55;95592.00;;;17.41;49.44
69570;BME280;56781;42.292;23.146;2023-03-31T06:39:22;95579.34;;;16.10;51.38
69570;BME280;56781;42.292;23.146;2023-03-31T06:41:53;95573.41;;;13.96;56.17
69570;BME280;56781;42.292;23.146;2023-03-31T06:44:20;95576.47;;;12.59;61.65
69570;BME280;56781;42.292;23.146;2023-03-31T06:46:49;95578.91;;;11.85;64.85
69570;BME280;56781;42.292;23.146;2023-03-31T06:49:16;95585.16;;;11.80;65.08
69570;BME280;56781;42.292;23.146;2023-03-31T06:51:43;95598.91;;;11.79;67.97
69570;BME280;56781;42.292;23.146;2023-03-31T06:54:10;95562.50;;;11.64;68.75
69570;BME280;56781;42.292;23.146;2023-03-31T06:56:37;95569.09;;;11.58;68.50
69570;BME280;56781;42.292;23.146;2023-03-31T06:59:04;95561.53;;;11.01;67.78
69570;BME280;56781;42.292;23.146;2023-03-31T07:01:32;95586.75;;;10.86;69.98
69570;BME280;56781;42.292;23.146;2023-03-31T07:04:03;95560.91;;;10.68;71.78
69570;BME280;56781;42.292;23.146;2023-03-31T07:06:30;95594.41;;;11.29;70.97
69570;BME280;56781;42.292;23.146;2023-03-31T07:08:57;95570.25;;;11.88;67.50
69570;BME280;56781;42.292;23.146;2023-03-31T07:11:25;95546.34;;;12.40;65.47
69570;BME280;56781;42.292;23.146;2023-03-31T07:13:52;95573.00;;;13.34;64.17
69570;BME280;56781;42.292;23.146;2023-03-31T07:16:19;95533.31;;;12.64;63.45
69570;BME280;56781;42.292;23.146;2023-03-31T07:18:46;95569.19;;;12.60;64.35
69570;BME280;56781;42.292;23.146;2023-03-31T07:21:13;95541.72;;;12.63;64.47
69570;BME280;56781;42.292;23.146;2023-03-31T07:23:41;95542.56;;;12.32;64.35
69570;BME280;56781;42.292;23.146;2023-03-31T07:26:08;95546.19;;;12.36;64.99
69570;BME280;56781;42.292;23.146;2023-03-31T07:28:35;95553.56;;;12.22;65.24
69570;BME280;56781;42.292;23.146;2023-03-31T07:31:09;95547.16;;;12.01;65.62
69570;BME280;56781;42.292;23.146;2023-03-31T07:33:37;95553.06;;;12.20;65.97
69570;BME280;56781;42.292;23.146;2023-03-31T07:36:04;95533.00;;;11.64;66.23
69570;BME280;56781;42.292;23.146;2023-03-31T07:38:41;95541.56;;;11.43;67.78
69570;BME280;56781;42.292;23.146;2023-03-31T07:41:15;95532.88;;;11.91;68.31
69570;BME280;56781;42.292;23.146;2023-03-31T07:43:43;95557.63;;;11.88;67.96
69570;BME280;56781;42.292;23.146;2023-03-31T07:46:21;95524.25;;;11.27;69.07
69570;BME280;56781;42.292;23.146;2023-03-31T07:48:50;95531.31;;;11.68;70.81
69570;BME280;56781;42.292;23.146;2023-03-31T07:51:20;95515.34;;;12.82;67.46
69570;BME280;56781;42.292;23.146;2023-03-31T07:53:48;95508.31;;;14.03;60.69
69570;BME280;56781;42.292;23.146;2023-03-31T07:56:23;95510.25;;;15.55;57.33
69570;BME280;56781;42.292;23.146;2023-03-31T07:58:51;95499.66;;;16.53;54.64
69570;BME280;56781;42.292;23.146;2023-03-31T08:01:22;95498.44;;;17.40;55.45
69570;BME280;56781;42.292;23.146;2023-03-31T08:03:52;95509.25;;;16.62;54.31
69570;BME280;56781;42.292;23.146;2023-03-31T08:06:23;95507.97;;;17.21;50.01
69570;BME280;56781;42.292;23.146;2023-03-31T08:08:50;95497.31;;;17.28;51.46
69570;BME280;56781;42.292;23.146;2023-03-31T08:11:18;95503.31;;;18.06;50.24
69570;BME280;56781;42.292;23.146;2023-03-31T08:13:47;95487.06;;;16.45;50.97
69570;BME280;56781;42.292;23.146;2023-03-31T08:16:14;95489.13;;;15.02;55.71
69570;BME280;56781;42.292;23.146;2023-03-31T08:18:41;95494.31;;;15.07;57.21
69570;BME280;56781;42.292;23.146;2023-03-31T08:21:09;95489.38;;;14.89;57.99
69570;BME280;56781;42.292;23.146;2023-03-31T08:23:36;95457.16;;;14.03;62.54
69570;BME280;56781;42.292;23.146;2023-03-31T08:26:10;95473.34;;;14.33;60.07
69570;BME280;56781;42.292;23.146;2023-03-31T08:28:42;95458.09;;;14.75;62.62
69570;BME280;56781;42.292;23.146;2023-03-31T08:31:09;95444.16;;;14.94;61.22
69570;BME280;56781;42.292;23.146;2023-03-31T08:33:36;95439.59;;;16.31;56.05
69570;BME280;56781;42.292;23.146;2023-03-31T08:36:05;95424.00;;;16.65;53.22
69570;BME280;56781;42.292;23.146;2023-03-31T08:38:36;95410.81;;;17.60;51.07
69570;BME280;56781;42.292;23.146;2023-03-31T08:41:09;95448.41;;;18.57;49.51
69570;BME280;56781;42.292;23.146;2023-03-31T08:43:45;95432.72;;;19.01;44.04
69570;BME280;56781;42.292;23.146;2023-03-31T08:46:16;95414.25;;;18.72;42.64
69570;BME280;56781;42.292;23.146;2023-03-31T08:48:49;95410.41;;;19.08;41.07
69570;BME280;56781;42.292;23.146;2023-03-31T08:51:30;95407.56;;;19.63;38.96
69570;BME280;56781;42.292;23.146;2023-03-31T08:54:02;95412.72;;;19.48;38.54
69570;BME280;56781;42.292;23.146;2023-03-31T08:56:35;95397.94;;;18.52;42.25
69570;BME280;56781;42.292;23.146;2023-03-31T08:59:05;95384.66;;;17.96;40.14
69570;BME280;56781;42.292;23.146;2023-03-31T09:07:06;95395.81;;;18.61;41.48
69570;BME280;56781;42.292;23.146;2023-03-31T09:09:55;95378.75;;;18.77;39.13
69570;BME280;56781;42.292;23.146;2023-03-31T09:12:46;95379.41;;;18.03;40.75
69570;BME280;56781;42.292;23.146;2023-03-31T09:15:27;95396.44;;;18.20;41.75
69570;BME280;56781;42.292;23.146;2023-03-31T09:17:57;95367.38;;;17.85;41.24
69570;BME280;56781;42.292;23.146;2023-03-31T09:20:31;95371.56;;;18.49;40.17
69570;BME280;56781;42.292;23.146;2023-03-31T09:23:13;95363.34;;;18.46;41.13
69570;BME280;56781;42.292;23.146;2023-03-31T09:25:45;95384.38;;;18.17;42.17
69570;BME280;56781;42.292;23.146;2023-03-31T09:28:21;95367.69;;;17.67;40.57
69570;BME280;56781;42.292;23.146;2023-03-31T09:30:49;95380.56;;;18.02;39.95
69570;BME280;56781;42.292;23.146;2023-03-31T09:33:27;95377.97;;;17.78;42.19
69570;BME280;56781;42.292;23.146;2023-03-31T09:35:58;95367.97;;;17.18;41.49
69570;BME280;56781;42.292;23.146;2023-03-31T09:38:27;95372.72;;;17.37;43.65
69570;BME280;56781;42.292;23.146;2023-03-31T09:41:00;95363.94;;;18.04;39.71
69570;BME280;56781;42.292;23.146;2023-03-31T09:43:30;95365.06;;;18.54;38.44
69570;BME280;56781;42.292;23.146;2023-03-31T09:46:01;95355.13;;;18.97;41.12
69570;BME280;56781;42.292;23.146;2023-03-31T09:48:36;95354.56;;;18.88;38.35
69570;BME280;56781;42.292;23.146;2023-03-31T09:51:07;95348.47;;;19.56;41.16
69570;BME280;56781;42.292;23.146;2023-03-31T09:53:51;95343.75;;;18.72;39.34
69570;BME280;56781;42.292;23.146;2023-03-31T09:59:17;95337.44;;;19.91;38.07
69570;BME280;56781;42.292;23.146;2023-03-31T10:01:46;95326.03;;;19.82;36.81
69570;BME280;56781;42.292;23.146;2023-03-31T10:04:24;95312.34;;;19.75;37.35
69570;BME280;56781;42.292;23.146;2023-03-31T10:06:53;95319.41;;;19.14;37.57
69570;BME280;56781;42.292;23.146;2023-03-31T10:09:26;95319.72;;;19.09;38.13
69570;BME280;56781;42.292;23.146;2023-03-31T10:12:01;95305.00;;;18.52;37.67
69570;BME280;56781;42.292;23.146;2023-03-31T10:14:44;95303.34;;;18.67;38.76
69570;BME280;56781;42.292;23.146;2023-03-31T10:17:19;95310.88;;;18.19;38.30
69570;BME280;56781;42.292;23.146;2023-03-31T10:19:48;95289.81;;;18.12;40.00
69570;BME280;56781;42.292;23.146;2023-03-31T10:24:48;95309.75;;;17.72;38.58
69570;BME280;56781;42.292;23.146;2023-03-31T10:27:25;95276.16;;;17.57;39.82
69570;BME280;56781;42.292;23.146;2023-03-31T10:30:04;95286.81;;;17.98;40.26
69570;BME280;56781;42.292;23.146;2023-03-31T10:32:40;95268.56;;;17.94;40.97
69570;BME280;56781;42.292;23.146;2023-03-31T10:35:25;95269.03;;;17.81;41.33
69570;BME280;56781;42.292;23.146;2023-03-31T10:37:55;95256.38;;;18.24;38.40
69570;BME280;56781;42.292;23.146;2023-03-31T10:40:28;95275.41;;;18.63;39.68
69570;BME280;56781;42.292;23.146;2023-03-31T10:45:30;95255.59;;;19.47;38.89
69570;BME280;56781;42.292;23.146;2023-03-31T10:48:08;95245.47;;;19.21;38.83
69570;BME280;56781;42.292;23.146;2023-03-31T10:50:43;95255.56;;;19.43;37.35
69570;BME280;56781;42.292;23.146;2023-03-31T10:53:13;95234.84;;;19.58;37.96
69570;BME280;56781;42.292;23.146;2023-03-31T10:58:43;95230.97;;;19.33;35.87
69570;BME280;56781;42.292;23.146;2023-03-31T11:12:48;95205.66;;;19.52;38.28
69570;BME280;56781;42.292;23.146;2023-03-31T11:18:26;95196.69;;;18.78;39.47
69570;BME280;56781;42.292;23.146;2023-03-31T11:21:13;95200.75;;;18.69;38.90
69570;BME280;56781;42.292;23.146;2023-03-31T11:32:33;95191.50;;;18.50;37.30
69570;BME280;56781;42.292;23.146;2023-03-31T11:37:51;95169.97;;;18.38;38.38
69570;BME280;56781;42.292;23.146;2023-03-31T11:40:32;95181.44;;;18.93;37.04
69570;BME280;56781;42.292;23.146;2023-03-31T11:43:06;95177.81;;;18.86;39.07
69570;BME280;56781;42.292;23.146;2023-03-31T11:45:51;95151.97;;;18.49;38.67
69570;BME280;56781;42.292;23.146;2023-03-31T11:48:35;95170.91;;;17.87;38.86
69570;BME280;56781;42.292;23.146;2023-03-31T11:51:10;95150.53;;;17.78;38.95
69570;BME280;56781;42.292;23.146;2023-03-31T11:53:39;95135.63;;;18.03;38.77
69570;BME280;56781;42.292;23.146;2023-03-31T11:56:10;95128.56;;;17.63;38.82
69570;BME280;56781;42.292;23.146;2023-03-31T11:59:08;95142.59;;;18.04;38.96
69570;BME280;56781;42.292;23.146;2023-03-31T12:01:45;95117.00;;;18.02;39.17
69570;BME280;56781;42.292;23.146;2023-03-31T12:04:26;95116.22;;;17.82;39.26
69570;BME280;56781;42.292;23.146;2023-03-31T12:07:08;95107.19;;;17.58;39.78
69570;BME280;56781;42.292;23.146;2023-03-31T12:09:58;95096.53;;;17.65;38.64
69570;BME280;56781;42.292;23.146;2023-03-31T12:12:35;95114.38;;;17.86;38.73
69570;BME280;56781;42.292;23.146;2023-03-31T12:15:29;95095.13;;;17.91;40.00
69570;BME280;56781;42.292;23.146;2023-03-31T12:18:02;95105.03;;;19.14;38.50
69570;BME280;56781;42.292;23.146;2023-03-31T12:20:44;95081.16;;;19.54;36.92
69570;BME280;56781;42.292;23.146;2023-03-31T12:23:18;95065.16;;;18.92;36.34
69570;BME280;56781;42.292;23.146;2023-03-31T12:28:35;95079.50;;;19.19;36.97
69570;BME280;56781;42.292;23.146;2023-03-31T12:31:06;95064.03;;;19.76;35.70
69570;BME280;56781;42.292;23.146;2023-03-31T12:33:39;95088.75;;;20.01;34.16
69570;BME280;56781;42.292;23.146;2023-03-31T12:36:32;95101.91;;;19.96;36.02
69570;BME280;56781;42.292;23.146;2023-03-31T12:45:28;95083.63;;;19.92;37.31
69570;BME280;56781;42.292;23.146;2023-03-31T12:51:16;95067.75;;;18.61;37.32
69570;BME280;56781;42.292;23.146;2023-03-31T12:54:31;95059.41;;;18.24;38.87
69570;BME280;56781;42.292;23.146;2023-03-31T12:59:39;95056.88;;;18.15;38.15
69570;BME280;56781;42.292;23.146;2023-03-31T13:02:20;95054.31;;;17.80;39.05
69570;BME280;56781;42.292;23.146;2023-03-31T13:04:48;95052.81;;;18.02;38.39
69570;BME280;56781;42.292;23.146;2023-03-31T13:13:05;95006.13;;;17.89;37.98
69570;BME280;56781;42.292;23.146;2023-03-31T13:15:32;95011.66;;;17.97;38.78
69570;BME280;56781;42.292;23.146;2023-03-31T13:18:02;94990.25;;;17.68;38.70
69570;BME280;56781;42.292;23.146;2023-03-31T13:20:34;94955.84;;;17.49;38.45
69570;BME280;56781;42.292;23.146;2023-03-31T13:23:14;94966.59;;;17.65;37.21
69570;BME280;56781;42.292;23.146;2023-03-31T13:25:51;94983.81;;;17.77;38.16
69570;BME280;56781;42.292;23.146;2023-03-31T13:31:17;94968.44;;;17.61;39.01
69570;BME280;56781;42.292;23.146;2023-03-31T13:33:55;94945.78;;;17.89;39.08
69570;BME280;56781;42.292;23.146;2023-03-31T13:45:02;94942.88;;;19.04;36.57
69570;BME280;56781;42.292;23.146;2023-03-31T13:48:02;94940.81;;;18.94;36.16
69570;BME280;56781;42.292;23.146;2023-03-31T14:04:41;94903.13;;;19.19;35.06
69570;BME280;56781;42.292;23.146;2023-03-31T14:07:19;94895.28;;;19.44;35.96
69570;BME280;56781;42.292;23.146;2023-03-31T14:09:51;94909.97;;;19.39;34.05
69570;BME280;56781;42.292;23.146;2023-03-31T14:12:35;94888.50;;;18.93;35.47
69570;BME280;56781;42.292;23.146;2023-03-31T14:15:04;94911.69;;;18.64;36.00
69570;BME280;56781;42.292;23.146;2023-03-31T14:17:36;94879.34;;;18.48;36.40
69570;BME280;56781;42.292;23.146;2023-03-31T14:37:04;94877.09;;;18.80;35.33
69570;BME280;56781;42.292;23.146;2023-03-31T14:39:36;94875.66;;;18.60;34.81
69570;BME280;56781;42.292;23.146;2023-03-31T14:42:17;94863.28;;;18.63;33.85
69570;BME280;56781;42.292;23.146;2023-03-31T14:44:45;94881.50;;;18.92;34.33
69570;BME280;56781;42.292;23.146;2023-03-31T14:47:21;94865.44;;;18.76;34.22
69570;BME280;56781;42.292;23.146;2023-03-31T14:50:00;94863.09;;;19.09;33.32
69570;BME280;56781;42.292;23.146;2023-03-31T14:52:31;94863.44;;;19.03;33.57
69570;BME280;56781;42.292;23.146;2023-03-31T14:54:59;94845.75;;;18.83;33.60
69570;BME280;56781;42.292;23.146;2023-03-31T14:57:33;94841.06;;;18.80;34.27
69570;BME280;56781;42.292;23.146;2023-03-31T15:00:05;94878.09;;;18.99;34.69
69570;BME280;56781;42.292;23.146;2023-03-31T15:02:39;94836.38;;;18.77;34.12
69570;BME280;56781;42.292;23.146;2023-03-31T15:05:14;94850.94;;;18.65;34.98
69570;BME280;56781;42.292;23.146;2023-03-31T15:07:47;94848.78;;;18.78;34.12
69570;BME280;56781;42.292;23.146;2023-03-31T15:10:18;94830.97;;;18.50;34.38
69570;BME280;56781;42.292;23.146;2023-03-31T15:12:48;94834.59;;;18.61;35.33
69570;BME280;56781;42.292;23.146;2023-03-31T15:15:18;94856.38;;;18.69;34.44
69570;BME280;56781;42.292;23.146;2023-03-31T15:17:46;94829.31;;;18.42;34.82
69570;BME280;56781;42.292;23.146;2023-03-31T15:22:58;94860.38;;;17.95;36.18
69570;BME280;56781;42.292;23.146;2023-03-31T15:25:32;94840.19;;;17.69;36.98
69570;BME280;56781;42.292;23.146;2023-03-31T15:28:06;94832.88;;;17.70;36.40
69570;BME280;56781;42.292;23.146;2023-03-31T15:30:36;94811.53;;;17.65;37.14
69570;BME280;56781;42.292;23.146;2023-03-31T15:33:06;94855.75;;;17.96;36.89
69570;BME280;56781;42.292;23.146;2023-03-31T15:35:45;94859.13;;;17.89;37.56
69570;BME280;56781;42.292;23.146;2023-03-31T15:38:13;94858.44;;;17.72;37.53
69570;BME280;56781;42.292;23.146;2023-03-31T15:40:53;94846.84;;;17.49;37.67